Time;durP1;ratioP1;P1;durP2;ratioP2;P2;SDS_P1;SDS_P2;PMS_P1;PMS_P2;Temp;Humidity;BMP_temperature;BMP_pressure;BME280_temperature;BME280_humidity;BME280_pressure;Samples;Min_cycle;Max_cycle;Signal;HPM_P1;HPM_P2
2023/01/28 10:26:45;;;;;;;6.57;4.80;;;;;;;2.53;90.96;99921.19;5109198;28;20543;-88
2023/01/28 10:29:17;;;;;;;4.90;4.40;;;;;;;3.00;86.33;99937.09;5090012;28;38605;-83
2023/01/28 10:31:52;;;;;;;5.90;4.33;;;;;;;3.55;83.91;99939.72;5090647;28;40553;-83
2023/01/28 10:34:20;;;;;;;5.07;4.57;;;;;;;4.10;82.39;99959.69;5090593;28;41490;-83
2023/01/28 10:36:49;;;;;;;4.93;4.50;;;;;;;4.39;80.80;99962.63;5107930;28;42387;-85
2023/01/28 10:39:48;;;;;;;5.10;4.03;;;;;;;4.39;75.72;99962.63;5089362;28;39147;-85
2023/01/28 10:42:27;;;;;;;4.60;4.10;;;;;;;4.52;73.99;99990.34;5087759;28;41728;-84
2023/01/28 10:44:59;;;;;;;6.30;5.70;;;;;;;4.54;74.30;99962.31;5089732;28;41664;-84
2023/01/28 10:47:32;;;;;;;6.70;5.50;;;;;;;4.72;73.79;99981.19;5089679;28;44566;-86
2023/01/28 10:50:01;;;;;;;6.27;5.67;;;;;;;4.49;72.96;99943.19;5090831;28;38921;-84
2023/01/28 10:52:28;;;;;;;5.10;4.60;;;;;;;4.79;73.34;99965.31;5090253;28;42563;-87
2023/01/28 10:55:00;;;;;;;6.30;4.60;;;;;;;4.87;72.34;99975.63;5089533;28;43065;-87
2023/01/28 10:57:30;;;;;;;5.83;5.00;;;;;;;4.70;71.51;99983.84;5089935;28;41169;-84
2023/01/28 10:59:58;;;;;;;7.60;5.63;;;;;;;4.86;71.48;99994.88;5090416;28;41334;-84
2023/01/28 11:02:34;;;;;;;9.47;6.50;;;;;;;4.86;70.84;99982.63;5089163;28;40918;-82
2023/01/28 11:05:05;;;;;;;7.47;4.93;;;;;;;4.93;70.19;99996.50;5086799;28;43978;-86
2023/01/28 11:07:33;;;;;;;7.50;5.57;;;;;;;4.90;69.65;100001.81;5095414;28;40843;-83
2023/01/28 11:10:02;;;;;;;6.60;5.30;;;;;;;4.84;69.85;99980.94;5102132;28;39686;-83
2023/01/28 11:12:31;;;;;;;4.20;3.80;;;;;;;4.94;70.28;99982.50;5102252;28;43055;-82
2023/01/28 11:15:01;;;;;;;6.37;4.80;;;;;;;5.02;70.15;100004.19;5120526;28;44062;-82
2023/01/28 11:17:30;;;;;;;5.13;4.60;;;;;;;4.91;69.67;99974.66;5100449;28;41641;-84
2023/01/28 11:20:01;;;;;;;4.80;3.93;;;;;;;4.99;68.62;100001.59;5111890;28;41255;-83
2023/01/28 11:22:33;;;;;;;16.27;10.13;;;;;;;5.02;69.60;99985.81;5090334;28;40354;-81
2023/01/28 11:25:02;;;;;;;12.87;9.23;;;;;;;5.11;70.02;99988.22;5089944;28;41590;-82
2023/01/28 11:27:33;;;;;;;5.73;5.13;;;;;;;5.02;67.39;99999.78;5089575;28;41174;-83
2023/01/28 11:30:03;;;;;;;5.13;4.37;;;;;;;5.09;68.17;100008.38;5105475;28;40385;-85
2023/01/28 11:32:31;;;;;;;7.87;6.50;;;;;;;4.96;68.45;99991.16;5088766;28;43213;-87
2023/01/28 11:34:59;;;;;;;6.93;5.47;;;;;;;4.99;67.92;100009.47;5089513;28;43249;-84
2023/01/28 11:37:28;;;;;;;6.00;5.27;;;;;;;5.05;68.31;100015.47;5078073;28;41980;-84
2023/01/28 11:40:15;;;;;;;4.03;3.63;;;;;;;5.11;68.04;100014.47;5075394;28;39049;-89
2023/01/28 11:42:44;;;;;;;4.43;3.83;;;;;;;5.01;67.79;100000.69;5072339;28;40934;-85
2023/01/28 11:45:17;;;;;;;4.20;3.80;;;;;;;5.10;66.96;99996.97;5092937;28;43745;-84
2023/01/28 11:47:59;;;;;;;4.67;3.90;;;;;;;5.07;66.05;100007.53;5075380;28;41239;-83
2023/01/28 11:50:37;;;;;;;4.87;4.17;;;;;;;5.02;66.41;99993.66;5075632;28;41328;-87
2023/01/28 11:53:19;;;;;;;5.73;4.90;;;;;;;5.11;66.87;99985.59;5075091;28;40660;-86
2023/01/28 11:56:02;;;;;;;4.17;3.77;;;;;;;5.18;66.36;99996.84;5073259;28;43077;-86
2023/01/28 11:58:42;;;;;;;3.73;3.43;;;;;;;5.27;66.06;100007.13;5075330;28;41472;-83
2023/01/28 12:01:13;;;;;;;4.70;3.20;;;;;;;5.33;66.40;100002.56;5071066;28;38911;-87
2023/01/28 12:04:10;;;;;;;4.47;3.97;;;;;;;5.22;65.51;100003.72;5072086;28;40955;-87
2023/01/28 12:06:50;;;;;;;3.07;2.77;;;;;;;5.09;65.13;99966.38;5075456;28;41636;-84
2023/01/28 12:09:28;;;;;;;4.83;3.83;;;;;;;5.17;64.07;100001.22;5085973;28;42460;-86
2023/01/28 12:12:13;;;;;;;4.13;3.73;;;;;;;5.18;64.23;100002.94;5075227;28;41778;-86
2023/01/28 12:15:21;;;;;;;8.73;4.07;;;;;;;5.12;64.41;99992.56;5126652;27;42507;-87
2023/01/28 12:18:07;;;;;;;3.10;2.90;;;;;;;4.94;64.03;99977.22;5072124;28;43354;-87
2023/01/28 12:20:41;;;;;;;3.73;3.37;;;;;;;4.93;64.06;99999.13;5075568;28;41176;-85
2023/01/28 12:23:23;;;;;;;3.83;3.07;;;;;;;4.63;64.13;99954.25;5088413;28;39903;-84
2023/01/28 12:26:16;;;;;;;3.70;3.10;;;;;;;4.94;64.49;99988.59;5072780;28;40972;-83
2023/01/28 12:28:55;;;;;;;3.77;3.47;;;;;;;4.84;64.61;99971.28;5071130;28;43123;-85
2023/01/28 12:31:56;;;;;;;3.93;3.27;;;;;;;4.96;64.00;99993.78;5089555;28;41099;-87
2023/01/28 12:34:59;;;;;;;6.70;3.53;;;;;;;4.82;64.68;99978.34;5086966;28;40133;-84
2023/01/28 12:37:37;;;;;;;4.27;3.70;;;;;;;4.86;64.97;99969.50;5064122;28;41557;-86
2023/01/28 12:40:21;;;;;;;3.83;3.20;;;;;;;4.94;64.64;99966.75;5075273;28;43821;-86
2023/01/28 12:42:53;;;;;;;4.57;3.63;;;;;;;5.01;64.36;99958.69;5070994;28;41046;-85
2023/01/28 12:45:26;;;;;;;3.50;3.20;;;;;;;5.07;64.87;99962.91;5074965;28;39015;-85
2023/01/28 12:48:01;;;;;;;5.00;3.70;;;;;;;5.22;64.91;99983.56;5075572;28;40380;-85
2023/01/28 12:50:33;;;;;;;4.60;4.20;;;;;;;5.02;63.27;99970.03;5076447;28;41845;-85
2023/01/28 12:53:09;;;;;;;4.37;3.97;;;;;;;5.02;62.97;99965.66;5076378;28;42238;-84
2023/01/28 12:55:42;;;;;;;4.37;3.97;;;;;;;5.10;63.84;99978.59;5076044;28;39196;-83
2023/01/28 12:58:17;;;;;;;4.10;3.63;;;;;;;5.02;63.76;99975.28;5076762;28;40747;-85
2023/01/28 13:00:50;;;;;;;4.57;4.10;;;;;;;4.99;64.55;99954.34;5093168;28;42134;-86
2023/01/28 13:03:25;;;;;;;4.73;4.17;;;;;;;4.87;63.71;99950.25;5075936;28;41124;-85
2023/01/28 13:05:57;;;;;;;10.73;6.53;;;;;;;4.89;63.47;99969.44;5075846;28;40133;-84
2023/01/28 13:08:27;;;;;;;11.13;7.00;;;;;;;4.98;63.98;99978.88;5093043;28;42134;-83
2023/01/28 13:10:57;;;;;;;14.03;8.90;;;;;;;4.91;63.43;99970.28;5076137;28;42704;-87
2023/01/28 13:13:30;;;;;;;13.63;8.80;;;;;;;4.94;63.77;99983.34;5075910;28;41343;-85
2023/01/28 13:15:58;;;;;;;11.40;7.70;;;;;;;4.85;63.56;99969.53;5075984;28;38939;-86
2023/01/28 13:18:34;;;;;;;8.20;5.97;;;;;;;4.79;63.65;99967.06;5075743;28;40844;-84
2023/01/28 13:21:04;;;;;;;7.73;6.60;;;;;;;4.77;63.33;99966.22;5076002;28;43282;-84
2023/01/28 13:23:41;;;;;;;8.97;6.23;;;;;;;4.89;64.03;99982.56;5075918;28;43829;-85
2023/01/28 13:26:12;;;;;;;3.90;3.40;;;;;;;4.78;62.53;100002.06;5075393;28;38846;-86
2023/01/28 13:28:40;;;;;;;7.23;5.40;;;;;;;4.65;63.07;99983.09;5075663;28;43335;-86
2023/01/28 13:31:12;;;;;;;6.10;4.60;;;;;;;4.64;62.72;100000.59;5075702;28;41454;-84
2023/01/28 13:33:42;;;;;;;4.13;3.73;;;;;;;4.62;62.65;99991.88;5076077;28;41235;-84
2023/01/28 13:36:24;;;;;;;6.27;3.80;;;;;;;4.47;62.91;99976.44;5075518;28;41009;-82
2023/01/28 13:39:02;;;;;;;10.60;7.33;;;;;;;4.54;63.68;99967.56;5076004;28;40979;-87
2023/01/28 13:41:41;;;;;;;9.13;6.77;;;;;;;4.41;62.39;99981.81;5075292;28;41811;-86
2023/01/28 13:44:19;;;;;;;5.60;4.30;;;;;;;4.48;63.02;99993.03;5075553;28;42182;-87
2023/01/28 13:46:47;;;;;;;5.43;4.17;;;;;;;4.34;62.74;99982.81;5075800;28;39703;-85
2023/01/28 13:49:26;;;;;;;5.73;4.97;;;;;;;4.48;62.75;99995.66;5075171;28;40872;-82
2023/01/28 13:52:04;;;;;;;6.83;4.90;;;;;;;4.45;62.79;99987.88;5075283;28;43614;-88
2023/01/28 13:54:35;;;;;;;3.60;3.30;;;;;;;4.57;62.97;100008.63;5074928;28;41080;-83
2023/01/28 13:57:37;;;;;;;4.30;3.87;;;;;;;4.62;62.05;100028.63;5075277;28;40518;-84
2023/01/28 14:00:13;;;;;;;3.40;3.10;;;;;;;4.54;62.06;100014.78;5074536;28;41923;-85
2023/01/28 14:03:26;;;;;;;4.87;3.03;;;;;;;4.48;61.40;100016.66;5075287;28;43917;-86
2023/01/28 14:06:19;;;;;;;5.57;3.10;;;;;;;4.51;61.47;100040.22;5075165;28;44272;-83
2023/01/28 14:09:19;;;;;;;3.80;3.50;;;;;;;4.35;61.12;100026.50;5092503;28;39612;-83
2023/01/28 14:12:17;;;;;;;3.37;3.00;;;;;;;4.29;58.96;100063.34;5069815;28;41557;-83
2023/01/28 14:15:09;;;;;;;3.40;3.03;;;;;;;4.33;60.26;100042.25;5074902;28;41961;-87
2023/01/28 14:17:44;;;;;;;4.03;2.97;;;;;;;4.37;61.14;100048.34;5074712;28;41535;-84
2023/01/28 14:20:19;;;;;;;5.30;4.07;;;;;;;4.32;61.83;100042.31;5090338;28;39928;-88
2023/01/28 14:22:50;;;;;;;3.37;3.00;;;;;;;4.37;60.93;100053.56;5075293;28;40882;-87
2023/01/28 14:25:28;;;;;;;4.87;3.70;;;;;;;4.21;60.04;100052.13;5074423;28;43164;-81
2023/01/28 14:27:58;;;;;;;6.90;4.00;;;;;;;4.16;60.33;100049.59;5091755;28;42239;-83
2023/01/28 14:30:47;;;;;;;5.63;4.37;;;;;;;4.24;60.14;100067.78;5074854;28;39142;-88
2023/01/28 14:33:14;;;;;;;5.73;3.83;;;;;;;4.27;60.24;100057.25;5090019;28;42425;-84
2023/01/28 14:35:47;;;;;;;4.40;3.50;;;;;;;4.27;59.94;100068.63;5091310;28;41970;-83
2023/01/28 14:38:19;;;;;;;3.43;3.13;;;;;;;4.26;60.27;100076.50;5074620;28;42229;-85
2023/01/28 14:40:50;;;;;;;4.20;3.57;;;;;;;4.27;60.30;100083.47;5074878;28;40179;-86
2023/01/28 14:43:22;;;;;;;6.77;3.40;;;;;;;3.93;59.87;100036.88;5074885;28;42252;-87
